createdAt,value
2022-07-31T00:00:18.078Z,3.13
2022-07-31T00:02:45.038Z,2.70
2022-07-31T00:05:12.066Z,3.17
2022-07-31T00:07:39.166Z,2.67
2022-07-31T00:10:06.522Z,3.27
2022-07-31T00:12:35.176Z,2.53
2022-07-31T00:15:04.182Z,3.00
2022-07-31T00:17:32.850Z,2.90
2022-07-31T00:19:59.883Z,2.90
2022-07-31T00:22:26.727Z,3.10
2022-07-31T00:24:53.652Z,3.50
2022-07-31T00:27:21.054Z,3.70
2022-07-31T00:29:47.964Z,2.73
2022-07-31T00:32:15.006Z,3.00
2022-07-31T00:34:45.238Z,3.20
2022-07-31T00:37:12.175Z,3.00
2022-07-31T00:39:39.056Z,3.30
2022-07-31T00:42:06.232Z,2.60
2022-07-31T00:44:52.074Z,3.20
2022-07-31T00:47:23.884Z,2.93
2022-07-31T00:49:52.985Z,2.97
2022-07-31T00:52:20.284Z,3.77
2022-07-31T00:54:47.290Z,3.27
2022-07-31T00:57:15.445Z,3.87
2022-07-31T00:59:43.791Z,3.13
2022-07-31T01:02:10.883Z,3.70
2022-07-31T01:04:37.984Z,3.10
2022-07-31T01:07:09.030Z,3.03
2022-07-31T01:09:36.088Z,3.20
2022-07-31T01:12:02.943Z,3.10
2022-07-31T01:14:35.638Z,3.10
2022-07-31T01:17:06.648Z,3.27
2022-07-31T01:19:43.697Z,3.10
2022-07-31T01:22:33.384Z,2.93
2022-07-31T01:25:28.967Z,3.53
2022-07-31T01:28:25.020Z,3.17
2022-07-31T01:31:26.108Z,3.97
2022-07-31T01:34:04.090Z,3.57
2022-07-31T01:36:35.291Z,3.20
2022-07-31T01:39:03.381Z,3.30
2022-07-31T01:41:36.206Z,3.33
2022-07-31T01:44:05.647Z,3.80
2022-07-31T01:46:37.260Z,3.67
2022-07-31T01:49:09.984Z,3.57
2022-07-31T01:51:39.217Z,3.57
2022-07-31T01:54:07.396Z,4.20
2022-07-31T01:56:35.650Z,3.87
2022-07-31T01:59:04.080Z,3.43
2022-07-31T02:01:32.506Z,3.50
2022-07-31T02:04:03.057Z,3.50
2022-07-31T02:06:30.640Z,3.97
2022-07-31T02:08:59.280Z,4.00
2022-07-31T02:11:26.328Z,3.30
2022-07-31T02:13:54.519Z,3.23
2022-07-31T02:16:22.274Z,3.60
2022-07-31T02:18:51.167Z,3.67
2022-07-31T02:21:18.371Z,3.50
2022-07-31T02:23:45.443Z,3.37
2022-07-31T02:26:15.639Z,3.33
2022-07-31T02:28:44.864Z,3.00
2022-07-31T02:31:13.430Z,3.13
2022-07-31T02:33:43.308Z,3.33
2022-07-31T02:36:13.585Z,3.03
2022-07-31T02:38:42.881Z,3.20
2022-07-31T02:41:11.429Z,2.63
2022-07-31T02:43:39.590Z,3.93
2022-07-31T02:46:07.571Z,3.30
2022-07-31T02:48:34.960Z,3.80
2022-07-31T02:51:02.160Z,2.50
2022-07-31T02:53:30.623Z,2.80
2022-07-31T02:55:58.178Z,2.70
2022-07-31T02:58:25.096Z,3.07
2022-07-31T03:01:02.086Z,2.70
2022-07-31T03:03:29.096Z,3.40
2022-07-31T03:05:56.327Z,2.90
2022-07-31T03:08:23.273Z,2.90
2022-07-31T03:10:50.659Z,2.67
2022-07-31T03:13:20.132Z,2.70
2022-07-31T03:15:50.884Z,3.20
2022-07-31T03:18:19.552Z,3.33
2022-07-31T03:20:47.138Z,2.67
2022-07-31T03:23:14.722Z,2.83
2022-07-31T03:25:42.348Z,3.20
2022-07-31T03:28:09.288Z,2.97
2022-07-31T03:30:36.327Z,2.77
2022-07-31T03:33:03.689Z,2.60
2022-07-31T03:35:31.019Z,3.03
2022-07-31T03:37:58.005Z,3.30
2022-07-31T03:40:25.118Z,2.60
2022-07-31T03:42:53.348Z,3.40
2022-07-31T03:45:21.869Z,2.93
2022-07-31T03:47:49.420Z,2.30
2022-07-31T03:50:17.379Z,3.27
2022-07-31T03:52:47.080Z,3.20
2022-07-31T03:55:14.652Z,2.67
2022-07-31T03:57:42.624Z,3.20
2022-07-31T04:00:17.033Z,3.00
2022-07-31T04:02:45.651Z,2.90
2022-07-31T04:05:12.684Z,2.57
2022-07-31T04:07:39.505Z,3.40
2022-07-31T04:10:06.954Z,2.80
2022-07-31T04:12:33.869Z,2.73
2022-07-31T04:15:00.712Z,3.37
2022-07-31T04:17:27.583Z,2.93
2022-07-31T04:19:57.893Z,2.50
2022-07-31T04:22:25.122Z,3.40
2022-07-31T04:24:51.998Z,3.23
2022-07-31T04:27:18.958Z,2.97
2022-07-31T04:29:46.308Z,3.07
2022-07-31T04:32:13.235Z,3.07
2022-07-31T04:34:40.126Z,2.77
2022-07-31T04:37:07.009Z,2.90
2022-07-31T04:39:34.097Z,2.60
2022-07-31T04:42:01.411Z,2.60
2022-07-31T04:44:28.538Z,2.10
2022-07-31T04:47:05.998Z,3.13
2022-07-31T04:49:33.667Z,2.90
2022-07-31T04:52:01.315Z,2.87
2022-07-31T04:54:28.616Z,2.50
2022-07-31T04:56:55.794Z,3.07
2022-07-31T04:59:23.267Z,2.30
2022-07-31T05:01:50.941Z,2.33
2022-07-31T05:04:19.051Z,2.20
2022-07-31T05:06:51.171Z,2.07
2022-07-31T05:09:23.577Z,2.00
2022-07-31T05:11:53.024Z,1.90
2022-07-31T05:14:21.646Z,2.17
2022-07-31T05:16:49.972Z,2.37
2022-07-31T05:19:17.979Z,1.90
2022-07-31T05:21:52.978Z,1.87
2022-07-31T05:24:33.609Z,2.07
2022-07-31T05:27:02.717Z,1.73
2022-07-31T05:29:30.776Z,1.77
2022-07-31T05:31:59.733Z,1.87
2022-07-31T05:34:30.179Z,2.00
2022-07-31T05:36:58.693Z,1.63
2022-07-31T05:39:26.758Z,1.83
2022-07-31T05:41:53.896Z,1.87
2022-07-31T05:44:21.000Z,1.47
2022-07-31T05:46:48.115Z,1.90
2022-07-31T05:49:15.255Z,1.70
2022-07-31T05:51:46.934Z,1.43
2022-07-31T05:54:14.578Z,1.80
2022-07-31T05:56:41.712Z,1.50
2022-07-31T05:59:09.913Z,1.77
2022-07-31T06:01:37.614Z,1.50
2022-07-31T06:04:04.798Z,1.23
2022-07-31T06:06:32.075Z,1.13
2022-07-31T06:09:04.412Z,1.77
2022-07-31T06:11:32.334Z,1.53
2022-07-31T06:13:59.580Z,1.60
2022-07-31T06:16:26.829Z,1.50
2022-07-31T06:18:53.760Z,1.37
2022-07-31T06:23:46.546Z,1.17
2022-07-31T06:26:13.755Z,1.73
2022-07-31T06:28:48.753Z,1.47
2022-07-31T06:31:25.218Z,1.30
2022-07-31T06:33:52.761Z,1.33
2022-07-31T06:36:20.223Z,1.60
2022-07-31T06:38:47.535Z,1.53
2022-07-31T06:41:36.239Z,1.50
2022-07-31T06:44:04.269Z,1.13
2022-07-31T06:46:31.360Z,1.33
2022-07-31T06:48:58.703Z,1.60
2022-07-31T06:51:32.983Z,1.17
2022-07-31T06:54:05.834Z,1.60
2022-07-31T06:56:34.080Z,1.60
2022-07-31T06:59:01.639Z,1.53
2022-07-31T07:01:29.133Z,1.57
2022-07-31T07:03:56.152Z,1.57
2022-07-31T07:06:23.887Z,1.63
2022-07-31T07:08:51.357Z,1.60
2022-07-31T07:11:19.220Z,1.73
2022-07-31T07:13:47.040Z,1.90
2022-07-31T07:16:15.162Z,1.63
2022-07-31T07:18:43.316Z,1.37
2022-07-31T07:21:11.295Z,1.50
2022-07-31T07:23:39.010Z,1.77
2022-07-31T07:26:06.406Z,1.73
2022-07-31T07:28:34.047Z,1.73
2022-07-31T07:31:00.988Z,1.67
2022-07-31T07:33:40.133Z,1.77
2022-07-31T07:36:23.426Z,1.63
2022-07-31T07:38:55.120Z,1.70
2022-07-31T07:41:23.533Z,1.43
2022-07-31T07:43:52.649Z,1.90
2022-07-31T07:46:21.138Z,2.43
2022-07-31T07:48:50.850Z,2.27
2022-07-31T07:51:18.123Z,2.00
2022-07-31T07:53:45.025Z,2.17
2022-07-31T07:56:12.183Z,2.10
2022-07-31T07:58:39.829Z,2.43
2022-07-31T08:01:06.819Z,2.27
2022-07-31T08:03:50.311Z,2.57
2022-07-31T08:06:20.525Z,2.40
2022-07-31T08:08:47.887Z,2.40
2022-07-31T08:11:17.037Z,3.03
2022-07-31T08:13:49.315Z,2.57
2022-07-31T08:16:17.428Z,2.63
2022-07-31T08:18:44.352Z,2.73
2022-07-31T08:21:11.238Z,2.80
2022-07-31T08:23:38.424Z,3.20
2022-07-31T08:26:06.508Z,2.83
2022-07-31T08:28:34.663Z,3.33
2022-07-31T08:31:03.057Z,2.87
2022-07-31T08:33:30.373Z,2.53
2022-07-31T08:35:57.273Z,3.00
2022-07-31T08:38:24.601Z,2.73
2022-07-31T08:40:51.594Z,2.70
2022-07-31T08:44:01.830Z,3.00
2022-07-31T08:46:07.934Z,2.53
2022-07-31T08:48:40.031Z,2.53
2022-07-31T08:51:07.476Z,2.60
2022-07-31T08:53:37.197Z,2.50
2022-07-31T08:56:08.586Z,2.73
2022-07-31T08:58:39.284Z,2.57
2022-07-31T09:01:08.542Z,2.43
2022-07-31T09:03:36.244Z,2.97
2022-07-31T09:06:04.232Z,2.50
2022-07-31T09:08:36.244Z,2.67
2022-07-31T09:11:07.482Z,2.57
2022-07-31T09:13:35.036Z,2.00
2022-07-31T09:16:02.795Z,2.33
2022-07-31T09:18:29.968Z,2.20
2022-07-31T09:21:02.044Z,2.63
2022-07-31T09:23:30.237Z,2.40
2022-07-31T09:26:02.960Z,2.30
2022-07-31T09:28:38.634Z,2.30
2022-07-31T09:31:07.492Z,2.10
2022-07-31T09:33:36.839Z,2.10
2022-07-31T09:36:04.875Z,3.97
2022-07-31T09:38:37.236Z,2.17
2022-07-31T09:41:26.772Z,2.63
2022-07-31T09:44:10.189Z,2.30
2022-07-31T09:46:46.840Z,1.70
2022-07-31T09:49:14.847Z,2.17
2022-07-31T09:51:44.192Z,2.23
2022-07-31T09:54:25.313Z,2.00
2022-07-31T09:56:52.648Z,1.63
2022-07-31T09:59:20.946Z,2.17
2022-07-31T10:01:49.376Z,1.90
2022-07-31T10:04:21.780Z,2.00
2022-07-31T10:06:50.570Z,2.13
2022-07-31T10:09:20.763Z,2.33
2022-07-31T10:11:49.970Z,2.37
2022-07-31T10:14:28.633Z,2.00
2022-07-31T10:16:59.135Z,2.43
2022-07-31T10:19:31.114Z,2.60
2022-07-31T10:22:01.830Z,2.57
2022-07-31T10:24:36.019Z,1.87
2022-07-31T10:27:10.741Z,2.20
2022-07-31T10:29:41.625Z,2.27
2022-07-31T10:32:09.047Z,2.10
2022-07-31T10:34:36.588Z,2.60
2022-07-31T10:37:12.413Z,1.87
2022-07-31T10:40:21.273Z,2.10
2022-07-31T10:43:10.133Z,1.97
2022-07-31T10:45:51.586Z,1.97
2022-07-31T10:48:19.442Z,2.13
2022-07-31T10:50:47.879Z,2.00
2022-07-31T10:53:17.064Z,1.90
2022-07-31T10:55:44.404Z,2.20
2022-07-31T10:58:17.268Z,2.10
2022-07-31T11:00:44.214Z,2.10
2022-07-31T11:03:23.867Z,2.90
2022-07-31T11:06:01.728Z,2.53
2022-07-31T11:08:40.759Z,2.70
2022-07-31T11:11:07.842Z,2.67
2022-07-31T11:13:49.418Z,2.63
2022-07-31T11:16:17.073Z,2.30
2022-07-31T11:18:46.217Z,2.93
2022-07-31T11:21:37.066Z,2.80
2022-07-31T11:24:03.233Z,2.33
2022-07-31T11:26:41.555Z,2.80
2022-07-31T11:29:59.751Z,3.50
2022-07-31T11:32:16.070Z,3.53
2022-07-31T11:34:46.310Z,2.90
2022-07-31T11:37:45.895Z,2.87
2022-07-31T11:40:13.965Z,2.97
2022-07-31T11:42:46.473Z,3.37
2022-07-31T11:45:17.837Z,2.93
2022-07-31T11:48:12.195Z,3.50
2022-07-31T11:50:41.966Z,3.50
2022-07-31T11:53:09.139Z,3.80
2022-07-31T11:55:59.784Z,3.47
2022-07-31T11:58:31.091Z,3.30
2022-07-31T12:01:00.468Z,3.93
2022-07-31T12:03:31.859Z,3.07
2022-07-31T12:05:59.561Z,3.83
2022-07-31T12:08:28.161Z,3.43
2022-07-31T12:10:56.931Z,3.30
2022-07-31T12:13:25.507Z,3.57
2022-07-31T12:16:05.937Z,3.73
2022-07-31T12:18:55.051Z,3.50
2022-07-31T12:21:37.141Z,3.50
2022-07-31T12:24:12.677Z,3.73
2022-07-31T12:26:43.017Z,3.27
2022-07-31T12:29:11.942Z,3.80
2022-07-31T12:31:44.645Z,3.90
2022-07-31T12:34:11.715Z,3.37
2022-07-31T12:36:38.633Z,3.87
2022-07-31T12:39:05.956Z,3.73
2022-07-31T12:41:43.233Z,3.43
2022-07-31T12:44:14.294Z,4.17
2022-07-31T12:46:41.836Z,4.50
2022-07-31T12:49:09.002Z,3.67
2022-07-31T12:51:45.254Z,3.70
2022-07-31T12:54:15.713Z,3.70
2022-07-31T12:56:43.540Z,3.97
2022-07-31T12:59:10.626Z,4.57
2022-07-31T13:01:38.235Z,4.30
2022-07-31T13:04:07.999Z,4.60
2022-07-31T13:06:45.178Z,4.73
2022-07-31T13:09:12.126Z,4.30
2022-07-31T13:11:46.871Z,4.37
2022-07-31T13:14:19.536Z,4.20
2022-07-31T13:16:48.279Z,4.10
2022-07-31T13:19:15.644Z,4.77
2022-07-31T13:21:49.184Z,5.13
2022-07-31T13:24:18.431Z,4.20
2022-07-31T13:26:45.551Z,4.43
2022-07-31T13:29:13.090Z,5.13
2022-07-31T13:31:40.296Z,5.23
2022-07-31T13:34:07.542Z,4.23
2022-07-31T13:36:39.084Z,4.90
2022-07-31T13:39:07.880Z,5.57
2022-07-31T13:41:35.829Z,5.60
2022-07-31T13:44:03.884Z,5.70
2022-07-31T13:46:31.712Z,6.60
2022-07-31T13:49:02.663Z,5.70
2022-07-31T13:51:30.031Z,5.57
2022-07-31T13:53:57.135Z,6.70
2022-07-31T13:56:34.055Z,7.10
2022-07-31T13:59:10.211Z,5.87
2022-07-31T14:02:03.359Z,5.80
2022-07-31T14:04:25.944Z,6.10
2022-07-31T14:06:55.525Z,5.30
2022-07-31T14:09:22.416Z,5.13
2022-07-31T14:11:49.279Z,6.20
2022-07-31T14:14:22.896Z,5.87
2022-07-31T14:16:50.675Z,6.30
2022-07-31T14:19:17.818Z,6.90
2022-07-31T14:21:56.081Z,7.77
2022-07-31T14:24:25.066Z,8.23
2022-07-31T14:26:52.061Z,7.60
2022-07-31T14:29:18.985Z,7.60
2022-07-31T14:31:45.878Z,6.10
2022-07-31T14:34:12.710Z,6.00
2022-07-31T14:36:39.558Z,6.53
2022-07-31T14:39:06.430Z,5.70
2022-07-31T14:41:33.381Z,6.13
2022-07-31T14:44:00.597Z,6.40
2022-07-31T14:46:27.494Z,6.67
2022-07-31T14:48:54.435Z,5.77
2022-07-31T14:51:21.363Z,5.17
2022-07-31T14:53:48.258Z,5.20
2022-07-31T14:56:23.429Z,4.70
2022-07-31T14:59:01.586Z,4.03
2022-07-31T15:01:30.501Z,4.20
2022-07-31T15:03:58.443Z,3.90
2022-07-31T15:06:40.804Z,4.03
2022-07-31T15:09:12.489Z,2.93
2022-07-31T15:11:59.144Z,3.23
2022-07-31T15:14:27.804Z,2.30
2022-07-31T15:16:54.703Z,3.30
2022-07-31T15:19:21.659Z,2.80
2022-07-31T15:22:10.969Z,2.50
2022-07-31T15:24:35.440Z,2.93
2022-07-31T15:27:02.628Z,2.23
2022-07-31T15:30:04.210Z,2.33
2022-07-31T15:32:16.641Z,2.37
2022-07-31T15:34:43.564Z,1.77
2022-07-31T15:37:10.435Z,1.53
2022-07-31T15:40:02.678Z,1.80
2022-07-31T15:42:37.140Z,1.57
2022-07-31T15:45:04.655Z,1.77
2022-07-31T15:47:31.540Z,1.30
2022-07-31T15:49:58.540Z,1.47
2022-07-31T15:52:25.720Z,1.50
2022-07-31T15:54:53.162Z,1.60
2022-07-31T15:57:23.759Z,1.50
2022-07-31T15:59:52.014Z,2.00
2022-07-31T16:02:18.857Z,1.40
2022-07-31T16:04:48.621Z,1.70
2022-07-31T16:08:31.561Z,1.50
2022-07-31T16:10:15.450Z,1.40
2022-07-31T16:12:46.906Z,1.20
2022-07-31T16:15:16.110Z,1.17
2022-07-31T16:17:43.851Z,1.57
2022-07-31T16:20:20.545Z,1.43
2022-07-31T16:22:56.242Z,1.20
2022-07-31T16:25:24.276Z,1.60
2022-07-31T16:27:51.155Z,1.50
2022-07-31T16:30:18.141Z,1.57
2022-07-31T16:32:44.993Z,1.40
2022-07-31T16:35:12.617Z,1.50
2022-07-31T16:37:52.223Z,1.73
2022-07-31T16:40:28.334Z,1.80
2022-07-31T16:43:01.120Z,1.70
2022-07-31T16:45:29.114Z,1.83
2022-07-31T16:47:55.992Z,1.80
2022-07-31T16:50:23.244Z,1.57
2022-07-31T16:52:54.621Z,1.87
2022-07-31T16:55:59.940Z,1.53
2022-07-31T16:58:11.611Z,1.53
2022-07-31T17:00:39.830Z,2.50
2022-07-31T17:03:06.938Z,1.90
2022-07-31T17:05:53.840Z,2.37
2022-07-31T17:08:20.827Z,2.37
2022-07-31T17:10:51.279Z,2.33
2022-07-31T17:13:21.561Z,3.70
2022-07-31T17:15:48.403Z,4.10
2022-07-31T17:18:15.256Z,3.83
2022-07-31T17:20:46.974Z,3.80
2022-07-31T17:23:14.061Z,4.17
2022-07-31T17:25:42.676Z,4.50
2022-07-31T17:28:13.427Z,4.20
2022-07-31T17:30:42.369Z,4.53
2022-07-31T17:33:09.219Z,4.60
2022-07-31T17:35:36.106Z,4.90
2022-07-31T17:38:03.737Z,4.13
2022-07-31T17:40:43.100Z,4.20
2022-07-31T17:43:10.946Z,4.70
2022-07-31T17:45:59.628Z,4.80
2022-07-31T17:48:27.523Z,4.53
2022-07-31T17:50:54.440Z,4.83
2022-07-31T17:53:21.383Z,4.27
2022-07-31T17:55:49.563Z,4.00
2022-07-31T17:58:16.492Z,4.60
2022-07-31T18:00:43.519Z,4.47
2022-07-31T18:03:10.389Z,5.23
2022-07-31T18:05:37.867Z,4.60
2022-07-31T18:08:05.057Z,5.40
2022-07-31T18:10:52.175Z,4.80
2022-07-31T18:13:18.929Z,4.67
2022-07-31T18:15:45.754Z,4.50
2022-07-31T18:18:12.707Z,4.00
2022-07-31T18:20:40.999Z,4.50
2022-07-31T18:23:10.234Z,4.93
2022-07-31T18:25:37.528Z,5.33
2022-07-31T18:28:05.860Z,6.40
2022-07-31T18:30:35.878Z,6.00
2022-07-31T18:33:05.522Z,5.20
2022-07-31T18:35:32.802Z,4.77
2022-07-31T18:37:59.633Z,5.13
2022-07-31T18:40:26.461Z,4.67
2022-07-31T18:42:53.329Z,5.30
2022-07-31T18:45:20.181Z,5.67
2022-07-31T18:47:47.062Z,6.47
2022-07-31T18:51:01.114Z,8.10
2022-07-31T18:53:00.760Z,7.00
2022-07-31T18:55:27.590Z,7.30
2022-07-31T18:57:54.456Z,7.57
2022-07-31T19:00:24.852Z,6.63
2022-07-31T19:02:51.989Z,7.13
2022-07-31T19:05:21.861Z,6.60
2022-07-31T19:07:49.336Z,6.13
2022-07-31T19:10:30.932Z,5.70
2022-07-31T19:12:58.808Z,5.70
2022-07-31T19:15:25.721Z,6.33
2022-07-31T19:17:52.567Z,6.63
2022-07-31T19:20:56.170Z,6.23
2022-07-31T19:23:14.209Z,6.00
2022-07-31T19:25:53.916Z,4.47
2022-07-31T19:28:30.728Z,5.60
2022-07-31T19:30:57.770Z,5.20
2022-07-31T19:33:24.928Z,5.00
2022-07-31T19:35:56.975Z,4.40
2022-07-31T19:38:28.920Z,4.23
2022-07-31T19:40:56.142Z,4.60
2022-07-31T19:43:23.068Z,5.37
2022-07-31T19:46:02.566Z,4.70
2022-07-31T19:48:37.067Z,4.83
2022-07-31T19:51:04.690Z,4.73
2022-07-31T19:53:31.863Z,4.53
2022-07-31T19:56:00.429Z,4.50
2022-07-31T19:58:27.255Z,5.03
2022-07-31T20:00:54.545Z,4.53
2022-07-31T20:03:21.526Z,4.57
2022-07-31T20:05:48.426Z,3.70
2022-07-31T20:08:15.290Z,4.30
2022-07-31T20:10:42.101Z,4.67
2022-07-31T20:13:09.829Z,4.10
2022-07-31T20:15:51.267Z,4.23
2022-07-31T20:18:28.523Z,4.93
2022-07-31T20:21:03.589Z,4.83
2022-07-31T20:23:31.233Z,4.63
2022-07-31T20:25:58.680Z,3.97
2022-07-31T20:28:27.111Z,4.00
2022-07-31T20:30:55.567Z,3.30
2022-07-31T20:33:22.691Z,5.03
2022-07-31T20:35:50.580Z,3.90
2022-07-31T20:38:22.347Z,3.50
2022-07-31T20:40:54.421Z,2.70
2022-07-31T20:43:27.037Z,4.50
2022-07-31T20:45:57.675Z,2.97
2022-07-31T20:48:32.146Z,2.87
2022-07-31T20:51:00.485Z,3.17
2022-07-31T20:53:27.753Z,2.73
2022-07-31T20:55:54.955Z,3.40
2022-07-31T20:58:23.420Z,3.17
2022-07-31T21:00:51.643Z,3.40
2022-07-31T21:03:19.353Z,3.53
2022-07-31T21:05:46.532Z,3.57
2022-07-31T21:08:14.085Z,3.20
2022-07-31T21:10:41.192Z,2.80
2022-07-31T21:13:08.477Z,2.60
2022-07-31T21:15:43.880Z,2.53
2022-07-31T21:18:21.415Z,3.40
2022-07-31T21:20:52.078Z,2.90
2022-07-31T21:23:24.434Z,2.73
2022-07-31T21:25:53.334Z,3.17
2022-07-31T21:28:21.302Z,2.90
2022-07-31T21:30:48.756Z,3.23
2022-07-31T21:33:16.289Z,3.70
2022-07-31T21:35:43.458Z,2.93
2022-07-31T21:38:11.978Z,3.70
2022-07-31T21:40:40.259Z,3.53
2022-07-31T21:43:08.607Z,4.10
2022-07-31T21:45:49.730Z,4.00
2022-07-31T21:48:25.444Z,4.20
2022-07-31T21:51:06.236Z,3.80
2022-07-31T21:53:33.223Z,3.50
2022-07-31T21:56:02.749Z,3.43
2022-07-31T21:58:29.669Z,2.97
2022-07-31T22:00:56.596Z,3.43
2022-07-31T22:03:25.418Z,3.23
2022-07-31T22:06:10.864Z,3.10
2022-07-31T22:08:39.097Z,5.80
2022-07-31T22:11:06.038Z,5.03
2022-07-31T22:13:32.920Z,2.80
2022-07-31T22:16:01.159Z,2.97
2022-07-31T22:18:29.409Z,2.80
2022-07-31T22:20:57.535Z,3.10
2022-07-31T22:23:26.157Z,3.67
2022-07-31T22:25:53.606Z,3.97
2022-07-31T22:28:22.447Z,3.57
2022-07-31T22:30:49.967Z,3.53
2022-07-31T22:33:16.991Z,2.63
2022-07-31T22:35:44.283Z,3.43
2022-07-31T22:38:11.765Z,3.33
2022-07-31T22:40:38.956Z,4.00
2022-07-31T22:43:47.271Z,3.30
2022-07-31T22:45:54.394Z,3.57
2022-07-31T22:48:24.357Z,4.10
2022-07-31T22:50:51.312Z,4.23
2022-07-31T22:53:18.220Z,4.23
2022-07-31T22:55:45.237Z,3.27
2022-07-31T22:58:15.092Z,3.13
2022-07-31T23:00:42.679Z,3.40
2022-07-31T23:03:09.683Z,3.90
2022-07-31T23:06:02.680Z,3.63
2022-07-31T23:08:23.426Z,4.40
2022-07-31T23:10:50.282Z,3.80
2022-07-31T23:13:17.193Z,3.70
2022-07-31T23:15:44.806Z,3.47
2022-07-31T23:18:12.006Z,4.00
2022-07-31T23:20:39.014Z,3.50
2022-07-31T23:23:06.080Z,3.73
2022-07-31T23:25:33.196Z,3.07
2022-07-31T23:28:00.054Z,3.60
2022-07-31T23:30:27.601Z,3.53
2022-07-31T23:32:55.435Z,3.70
2022-07-31T23:35:22.385Z,3.30
2022-07-31T23:37:49.381Z,2.90
2022-07-31T23:40:16.236Z,2.80
2022-07-31T23:42:43.132Z,3.50
2022-07-31T23:45:12.908Z,2.70
2022-07-31T23:47:46.174Z,3.30
2022-07-31T23:50:15.179Z,2.87
2022-07-31T23:52:46.041Z,3.57
2022-07-31T23:55:13.321Z,2.57
2022-07-31T23:57:40.897Z,2.67
